createdAt,value
2023-12-15T00:02:17.025Z,5.48
2023-12-15T00:04:43.767Z,5.50
2023-12-15T00:07:10.589Z,5.54
2023-12-15T00:09:37.250Z,5.54
2023-12-15T00:12:04.270Z,5.55
2023-12-15T00:14:30.994Z,5.58
2023-12-15T00:16:57.782Z,5.55
2023-12-15T00:19:24.461Z,5.56
2023-12-15T00:21:51.080Z,5.52
2023-12-15T00:24:17.690Z,5.57
2023-12-15T00:26:46.041Z,5.39
2023-12-15T00:29:12.669Z,5.54
2023-12-15T00:31:42.790Z,5.53
2023-12-15T00:34:09.503Z,5.56
2023-12-15T00:36:36.130Z,5.54
2023-12-15T00:39:02.732Z,5.58
2023-12-15T00:41:32.357Z,5.53
2023-12-15T00:43:59.054Z,5.59
2023-12-15T00:46:25.694Z,5.58
2023-12-15T00:48:52.521Z,5.49
2023-12-15T00:51:19.382Z,5.53
2023-12-15T00:53:48.823Z,5.56
2023-12-15T00:56:15.544Z,5.58
2023-12-15T00:58:42.285Z,5.56
2023-12-15T01:01:09.054Z,5.47
2023-12-15T01:03:36.914Z,5.58
2023-12-15T01:06:04.309Z,5.60
2023-12-15T01:08:32.501Z,5.54
2023-12-15T01:10:59.227Z,5.62
2023-12-15T01:13:28.924Z,5.57
2023-12-15T01:15:56.741Z,5.56
2023-12-15T01:18:23.430Z,5.66
2023-12-15T01:20:51.461Z,5.67
2023-12-15T01:23:19.337Z,5.65
2023-12-15T01:25:46.037Z,5.69
2023-12-15T01:28:12.777Z,5.66
2023-12-15T01:30:39.516Z,5.65
2023-12-15T01:33:06.341Z,5.69
2023-12-15T01:35:33.263Z,5.67
2023-12-15T01:37:59.922Z,5.77
2023-12-15T01:40:28.794Z,5.76
2023-12-15T01:43:01.068Z,5.77
2023-12-15T01:45:27.962Z,5.79
2023-12-15T01:47:58.529Z,5.79
2023-12-15T01:50:25.237Z,5.75
2023-12-15T01:52:51.934Z,5.77
2023-12-15T01:55:18.621Z,5.77
2023-12-15T01:57:45.597Z,5.73
2023-12-15T02:00:12.795Z,5.77
2023-12-15T02:02:39.495Z,5.76
2023-12-15T02:05:06.777Z,5.71
2023-12-15T02:07:33.686Z,5.75
2023-12-15T02:10:00.575Z,5.77
2023-12-15T02:12:27.272Z,5.76
2023-12-15T02:14:53.989Z,5.77
2023-12-15T02:17:20.709Z,5.80
2023-12-15T02:19:49.472Z,5.79
2023-12-15T02:22:16.132Z,5.75
2023-12-15T02:24:44.047Z,5.80
2023-12-15T02:27:10.687Z,5.79
2023-12-15T02:29:37.502Z,5.80
2023-12-15T02:32:06.942Z,5.82
2023-12-15T02:34:33.586Z,5.77
2023-12-15T02:37:00.253Z,5.77
2023-12-15T02:39:26.870Z,5.78
2023-12-15T02:41:53.600Z,5.75
2023-12-15T02:44:20.332Z,5.70
2023-12-15T02:46:47.078Z,5.76
2023-12-15T02:49:13.836Z,5.75
2023-12-15T02:51:40.658Z,5.68
2023-12-15T02:54:07.361Z,5.68
2023-12-15T02:56:34.121Z,5.73
2023-12-15T02:59:02.367Z,5.72
2023-12-15T03:01:29.006Z,5.72
2023-12-15T03:03:56.000Z,5.71
2023-12-15T03:06:22.791Z,5.72
2023-12-15T03:08:49.644Z,5.71
2023-12-15T03:11:16.561Z,5.69
2023-12-15T03:13:43.298Z,5.74
2023-12-15T03:16:11.708Z,5.77
2023-12-15T03:18:40.259Z,5.60
2023-12-15T03:21:08.458Z,5.80
2023-12-15T03:23:35.474Z,5.76
2023-12-15T03:26:05.351Z,5.81
2023-12-15T03:28:32.405Z,5.83
2023-12-15T03:30:59.142Z,5.82
2023-12-15T03:33:28.823Z,5.80
2023-12-15T03:35:55.502Z,5.77
2023-12-15T03:38:22.201Z,5.82
2023-12-15T03:40:48.844Z,5.83
2023-12-15T03:43:15.499Z,5.83
2023-12-15T03:45:42.164Z,5.89
2023-12-15T03:48:09.249Z,5.92
2023-12-15T03:50:36.068Z,5.86
2023-12-15T03:53:02.866Z,5.86
2023-12-15T03:55:29.563Z,5.84
2023-12-15T03:57:56.168Z,5.84
2023-12-15T04:00:22.896Z,5.80
2023-12-15T04:02:50.782Z,5.84
2023-12-15T04:05:17.576Z,5.87
2023-12-15T04:07:44.310Z,5.88
2023-12-15T04:10:11.250Z,5.88
2023-12-15T04:12:37.941Z,5.89
2023-12-15T04:15:05.142Z,5.81
2023-12-15T04:17:31.972Z,5.86
2023-12-15T04:19:58.757Z,5.87
2023-12-15T04:22:25.440Z,5.83
2023-12-15T04:24:52.066Z,5.83
2023-12-15T04:27:19.613Z,5.82
2023-12-15T04:29:46.290Z,5.84
2023-12-15T04:32:14.638Z,5.86
2023-12-15T04:34:41.289Z,5.84
2023-12-15T04:37:07.929Z,5.81
2023-12-15T04:39:34.752Z,5.80
2023-12-15T04:42:01.435Z,5.76
2023-12-15T04:44:28.136Z,5.82
2023-12-15T04:46:57.283Z,5.80
2023-12-15T04:49:24.316Z,5.82
2023-12-15T04:51:51.131Z,5.80
2023-12-15T04:54:17.823Z,5.87
2023-12-15T04:56:46.359Z,5.83
2023-12-15T04:59:13.518Z,5.83
2023-12-15T05:01:40.283Z,5.86
2023-12-15T05:04:07.070Z,5.82
2023-12-15T05:06:34.624Z,5.82
2023-12-15T05:09:03.808Z,5.85
2023-12-15T05:11:34.861Z,5.86
2023-12-15T05:14:02.227Z,5.86
2023-12-15T05:16:31.893Z,5.86
2023-12-15T05:18:58.639Z,5.90
2023-12-15T05:21:25.356Z,5.88
2023-12-15T05:23:51.984Z,5.81
2023-12-15T05:26:18.637Z,5.85
2023-12-15T05:28:46.101Z,5.87
2023-12-15T05:31:17.067Z,5.85
2023-12-15T05:33:44.044Z,5.76
2023-12-15T05:36:21.122Z,5.79
2023-12-15T05:38:49.535Z,5.79
2023-12-15T05:41:16.224Z,5.74
2023-12-15T05:43:42.992Z,5.75
2023-12-15T05:46:10.042Z,5.76
2023-12-15T05:48:40.144Z,5.73
2023-12-15T05:51:09.706Z,5.75
2023-12-15T05:53:48.514Z,5.72
2023-12-15T05:56:22.118Z,5.73
2023-12-15T05:58:50.025Z,5.68
2023-12-15T06:01:16.633Z,5.75
2023-12-15T06:03:43.347Z,5.75
2023-12-15T06:06:13.474Z,5.70
2023-12-15T06:08:40.334Z,5.81
2023-12-15T06:11:07.103Z,5.81
2023-12-15T06:13:33.742Z,5.80
2023-12-15T06:16:00.322Z,5.80
2023-12-15T06:18:27.164Z,5.79
2023-12-15T06:20:53.890Z,5.79
2023-12-15T06:23:20.549Z,5.79
2023-12-15T06:25:47.127Z,5.78
2023-12-15T06:28:13.749Z,5.78
2023-12-15T06:30:40.376Z,5.76
2023-12-15T06:33:07.914Z,5.80
2023-12-15T06:35:34.910Z,5.81
2023-12-15T06:38:01.658Z,5.81
2023-12-15T06:40:28.316Z,5.73
2023-12-15T06:42:55.322Z,5.82
2023-12-15T06:45:22.054Z,5.83
2023-12-15T06:47:48.743Z,5.75
2023-12-15T06:50:15.608Z,5.79
2023-12-15T06:52:42.229Z,5.85
2023-12-15T06:55:09.276Z,5.87
2023-12-15T06:57:36.031Z,5.87
2023-12-15T07:00:03.665Z,5.85
2023-12-15T07:02:30.325Z,5.85
2023-12-15T07:04:57.020Z,5.89
2023-12-15T07:07:23.703Z,5.88
2023-12-15T07:09:50.297Z,5.86
2023-12-15T07:12:17.059Z,5.88
2023-12-15T07:14:43.846Z,5.87
2023-12-15T07:17:10.562Z,5.86
2023-12-15T07:19:37.223Z,5.83
2023-12-15T07:22:04.091Z,5.81
2023-12-15T07:24:31.667Z,5.82
2023-12-15T07:26:58.243Z,5.82
2023-12-15T07:29:26.068Z,5.85
2023-12-15T07:31:52.793Z,5.80
2023-12-15T07:34:19.609Z,5.89
2023-12-15T07:36:46.468Z,5.95
2023-12-15T07:39:22.313Z,6.00
2023-12-15T07:41:50.009Z,6.03
2023-12-15T07:44:17.228Z,6.00
2023-12-15T07:46:44.509Z,6.00
2023-12-15T07:49:11.698Z,5.99
2023-12-15T07:51:38.401Z,6.02
2023-12-15T07:54:05.413Z,6.06
2023-12-15T07:56:32.007Z,5.98
2023-12-15T07:58:58.692Z,6.14
2023-12-15T08:01:25.974Z,6.11
2023-12-15T08:03:52.737Z,6.13
2023-12-15T08:06:20.018Z,6.15
2023-12-15T08:08:48.194Z,6.22
2023-12-15T08:11:15.038Z,6.27
2023-12-15T08:13:42.334Z,6.23
2023-12-15T08:16:13.117Z,6.22
2023-12-15T08:18:42.845Z,6.24
2023-12-15T08:21:12.201Z,6.26
2023-12-15T08:23:39.266Z,6.27
2023-12-15T08:26:06.156Z,6.30
2023-12-15T08:28:35.636Z,6.34
2023-12-15T08:31:02.266Z,6.34
2023-12-15T08:33:29.744Z,6.34
2023-12-15T08:35:56.431Z,6.42
2023-12-15T08:38:23.147Z,6.47
2023-12-15T08:40:49.769Z,6.48
2023-12-15T08:43:16.422Z,6.47
2023-12-15T08:45:44.239Z,6.50
2023-12-15T08:48:13.925Z,6.50
2023-12-15T08:50:40.684Z,6.46
2023-12-15T08:53:07.395Z,6.54
2023-12-15T08:55:34.037Z,6.57
2023-12-15T08:58:02.614Z,6.54
2023-12-15T09:00:29.228Z,6.57
2023-12-15T09:02:55.943Z,6.60
2023-12-15T09:05:38.908Z,6.60
2023-12-15T09:08:11.761Z,6.65
2023-12-15T09:10:43.546Z,6.65
2023-12-15T09:13:11.854Z,6.71
2023-12-15T09:15:38.770Z,6.74
2023-12-15T09:18:07.763Z,6.82
2023-12-15T09:20:36.117Z,6.90
2023-12-15T09:23:11.078Z,6.96
2023-12-15T09:25:38.077Z,6.95
2023-12-15T09:28:06.776Z,7.05
2023-12-15T09:30:34.349Z,7.10
2023-12-15T09:33:01.392Z,7.13
2023-12-15T09:35:28.817Z,7.13
2023-12-15T09:37:55.444Z,7.10
2023-12-15T09:40:26.969Z,7.17
2023-12-15T09:42:53.971Z,7.19
2023-12-15T09:45:20.752Z,7.17
2023-12-15T09:47:48.394Z,7.24
2023-12-15T09:50:18.501Z,7.28
2023-12-15T09:52:46.753Z,7.30
2023-12-15T09:55:13.467Z,7.40
2023-12-15T09:57:43.204Z,7.40
2023-12-15T10:00:10.324Z,7.44
2023-12-15T10:02:37.777Z,7.46
2023-12-15T10:05:05.021Z,7.54
2023-12-15T10:07:33.550Z,7.53
2023-12-15T10:10:00.199Z,7.54
2023-12-15T10:12:30.358Z,7.52
2023-12-15T10:14:57.537Z,7.56
2023-12-15T10:17:24.584Z,7.58
2023-12-15T10:19:51.864Z,7.61
2023-12-15T10:22:18.495Z,7.63
2023-12-15T10:24:45.075Z,7.66
2023-12-15T10:27:11.821Z,7.73
2023-12-15T10:29:40.271Z,7.79
2023-12-15T10:32:07.484Z,7.80
2023-12-15T10:34:34.777Z,7.84
2023-12-15T10:37:01.746Z,7.85
2023-12-15T10:39:28.790Z,7.88
2023-12-15T10:41:57.102Z,7.96
2023-12-15T10:44:25.980Z,7.95
2023-12-15T10:46:53.359Z,7.92
2023-12-15T10:49:21.043Z,7.92
2023-12-15T10:51:48.535Z,7.94
2023-12-15T10:54:16.999Z,7.97
2023-12-15T10:56:43.696Z,8.01
2023-12-15T10:59:11.150Z,8.07
2023-12-15T11:01:41.958Z,8.07
2023-12-15T11:04:22.812Z,8.06
2023-12-15T11:06:50.554Z,8.15
2023-12-15T11:09:39.900Z,8.16
2023-12-15T11:12:24.753Z,8.19
2023-12-15T11:14:58.949Z,8.23
2023-12-15T11:17:26.357Z,8.26
2023-12-15T11:20:04.227Z,8.28
2023-12-15T11:22:41.173Z,8.23
2023-12-15T11:25:09.677Z,8.26
2023-12-15T11:28:00.443Z,8.32
2023-12-15T11:30:37.352Z,8.38
2023-12-15T11:33:34.360Z,8.40
2023-12-15T11:36:08.082Z,8.31
2023-12-15T11:38:36.392Z,8.32
2023-12-15T11:41:03.585Z,8.31
2023-12-15T11:43:33.847Z,8.32
2023-12-15T11:46:01.269Z,8.27
2023-12-15T11:48:27.988Z,8.30
2023-12-15T11:50:54.825Z,8.28
2023-12-15T11:53:21.645Z,8.30
2023-12-15T11:55:51.953Z,8.36
2023-12-15T11:58:23.126Z,8.43
2023-12-15T12:00:50.086Z,8.42
2023-12-15T12:03:17.317Z,8.39
2023-12-15T12:05:49.264Z,8.46
2023-12-15T12:08:18.295Z,8.48
2023-12-15T12:10:45.493Z,8.52
2023-12-15T12:13:12.540Z,8.51
2023-12-15T12:15:55.874Z,8.50
2023-12-15T12:18:25.443Z,8.56
2023-12-15T12:21:01.575Z,8.55
2023-12-15T12:23:39.016Z,8.58
2023-12-15T12:26:10.266Z,8.57
2023-12-15T12:28:50.512Z,8.61
2023-12-15T12:31:18.333Z,8.69
2023-12-15T12:33:45.571Z,8.68
2023-12-15T12:36:12.495Z,8.65
2023-12-15T12:38:39.752Z,8.63
2023-12-15T12:41:07.827Z,8.55
2023-12-15T12:43:35.111Z,8.58
2023-12-15T12:46:02.043Z,8.56
2023-12-15T12:48:31.555Z,8.58
2023-12-15T12:50:58.706Z,8.58
2023-12-15T12:53:28.462Z,8.58
2023-12-15T12:55:55.153Z,8.58
2023-12-15T12:58:22.079Z,8.58
2023-12-15T13:00:52.795Z,8.57
2023-12-15T13:03:20.962Z,8.60
2023-12-15T13:05:52.396Z,8.58
2023-12-15T13:08:19.224Z,8.53
2023-12-15T13:10:45.907Z,8.54
2023-12-15T13:13:14.232Z,8.51
2023-12-15T13:15:41.234Z,8.51
2023-12-15T13:18:08.027Z,8.45
2023-12-15T13:20:34.744Z,8.44
2023-12-15T13:23:03.707Z,8.43
2023-12-15T13:25:30.753Z,8.41
2023-12-15T13:27:57.386Z,8.42
2023-12-15T13:30:24.256Z,8.39
2023-12-15T13:32:51.792Z,8.39
2023-12-15T13:35:18.587Z,8.34
2023-12-15T13:37:45.450Z,8.37
2023-12-15T13:40:13.123Z,8.39
2023-12-15T13:42:40.480Z,8.35
2023-12-15T13:45:07.636Z,8.38
2023-12-15T13:47:34.954Z,8.39
2023-12-15T13:50:02.290Z,8.29
2023-12-15T13:52:29.713Z,8.29
2023-12-15T13:54:56.600Z,8.27
2023-12-15T13:57:23.405Z,8.25
2023-12-15T13:59:50.062Z,8.24
2023-12-15T14:02:16.696Z,8.19
2023-12-15T14:04:43.273Z,8.17
2023-12-15T14:07:09.961Z,8.11
2023-12-15T14:09:37.289Z,8.08
2023-12-15T14:12:04.587Z,8.06
2023-12-15T14:14:31.323Z,8.03
2023-12-15T14:16:58.076Z,7.98
2023-12-15T14:19:24.915Z,7.98
2023-12-15T14:21:52.189Z,7.94
2023-12-15T14:24:19.824Z,7.90
2023-12-15T14:26:47.300Z,7.92
2023-12-15T14:29:14.560Z,7.82
2023-12-15T14:31:41.299Z,7.86
2023-12-15T14:34:09.215Z,7.84
2023-12-15T14:36:36.259Z,7.83
2023-12-15T14:39:06.339Z,7.82
2023-12-15T14:41:36.281Z,7.80
2023-12-15T14:44:04.807Z,7.76
2023-12-15T14:46:31.742Z,7.78
2023-12-15T14:48:58.852Z,7.79
2023-12-15T14:51:25.539Z,7.77
2023-12-15T14:53:52.242Z,7.73
2023-12-15T14:56:18.879Z,7.72
2023-12-15T14:58:45.848Z,7.67
2023-12-15T15:01:12.705Z,7.62
2023-12-15T15:03:39.360Z,7.60
2023-12-15T15:06:06.247Z,7.51
2023-12-15T15:08:33.579Z,7.51
2023-12-15T15:11:00.349Z,7.47
2023-12-15T15:13:27.134Z,7.51
2023-12-15T15:15:53.798Z,7.48
2023-12-15T15:18:22.109Z,7.45
2023-12-15T15:20:49.320Z,7.44
2023-12-15T15:23:16.166Z,7.45
2023-12-15T15:25:43.039Z,7.44
2023-12-15T15:28:09.725Z,7.41
2023-12-15T15:30:37.805Z,7.36
2023-12-15T15:33:04.580Z,7.38
2023-12-15T15:35:33.970Z,7.32
2023-12-15T15:38:00.746Z,7.32
2023-12-15T15:40:27.402Z,7.28
2023-12-15T15:42:54.247Z,7.22
2023-12-15T15:45:21.085Z,7.22
2023-12-15T15:47:49.032Z,7.16
2023-12-15T15:50:15.880Z,7.14
2023-12-15T15:52:42.452Z,7.14
2023-12-15T15:55:09.675Z,7.07
2023-12-15T15:57:37.434Z,7.08
2023-12-15T16:00:04.924Z,6.99
2023-12-15T16:02:32.082Z,6.97
2023-12-15T16:04:59.185Z,6.88
2023-12-15T16:07:25.856Z,6.81
2023-12-15T16:09:53.411Z,6.74
2023-12-15T16:12:20.775Z,6.68
2023-12-15T16:14:47.436Z,6.62
2023-12-15T16:17:14.027Z,6.59
2023-12-15T16:19:40.741Z,6.47
2023-12-15T16:22:07.723Z,6.57
2023-12-15T16:24:34.459Z,6.53
2023-12-15T16:27:01.037Z,6.55
2023-12-15T16:29:27.749Z,6.53
2023-12-15T16:31:54.862Z,6.61
2023-12-15T16:34:21.817Z,6.60
2023-12-15T16:36:48.569Z,6.59
2023-12-15T16:39:15.657Z,6.59
2023-12-15T16:41:42.523Z,6.63
2023-12-15T16:44:09.259Z,6.62
2023-12-15T16:46:36.471Z,6.56
2023-12-15T16:49:06.075Z,6.46
2023-12-15T16:51:37.332Z,6.55
2023-12-15T16:54:04.632Z,6.57
2023-12-15T16:56:31.469Z,6.55
2023-12-15T16:58:58.473Z,6.54
2023-12-15T17:01:25.652Z,6.44
2023-12-15T17:03:52.482Z,6.44
2023-12-15T17:06:19.214Z,6.39
2023-12-15T17:08:46.305Z,6.40
2023-12-15T17:11:14.216Z,6.42
2023-12-15T17:13:42.528Z,6.40
2023-12-15T17:16:19.767Z,6.37
2023-12-15T17:18:49.115Z,6.38
2023-12-15T17:21:16.134Z,6.35
2023-12-15T17:23:42.780Z,6.41
2023-12-15T17:26:10.654Z,6.43
2023-12-15T17:28:37.340Z,6.38
2023-12-15T17:31:06.381Z,6.42
2023-12-15T17:33:33.236Z,6.31
2023-12-15T17:36:00.253Z,6.30
2023-12-15T17:38:26.933Z,6.24
2023-12-15T17:40:53.806Z,6.15
2023-12-15T17:43:22.119Z,6.19
2023-12-15T17:45:48.750Z,6.18
2023-12-15T17:48:16.732Z,6.20
2023-12-15T17:50:44.821Z,6.21
2023-12-15T17:53:11.393Z,6.10
2023-12-15T17:55:38.121Z,6.16
2023-12-15T17:58:05.742Z,6.16
2023-12-15T18:00:32.715Z,6.19
2023-12-15T18:03:00.085Z,6.18
2023-12-15T18:05:26.696Z,6.19
2023-12-15T18:07:56.038Z,6.21
2023-12-15T18:10:23.227Z,6.14
2023-12-15T18:12:50.222Z,6.19
2023-12-15T18:15:17.802Z,6.19
2023-12-15T18:17:44.817Z,6.18
2023-12-15T18:20:14.857Z,6.19
2023-12-15T18:22:43.096Z,6.13
2023-12-15T18:25:10.868Z,6.13
2023-12-15T18:27:38.157Z,6.12
2023-12-15T18:30:05.489Z,6.09
2023-12-15T18:32:34.606Z,6.06
2023-12-15T18:35:01.331Z,6.00
2023-12-15T18:37:28.032Z,5.99
2023-12-15T18:39:54.794Z,5.95
2023-12-15T18:42:23.030Z,5.91
2023-12-15T18:44:49.906Z,5.93
2023-12-15T18:47:16.577Z,5.92
2023-12-15T18:49:43.287Z,5.97
2023-12-15T18:52:10.330Z,5.91
2023-12-15T18:54:38.336Z,5.93
2023-12-15T18:57:05.327Z,5.93
2023-12-15T18:59:33.613Z,5.92
2023-12-15T19:02:00.745Z,5.97
2023-12-15T19:04:27.697Z,6.00
2023-12-15T19:06:54.522Z,6.01
2023-12-15T19:09:21.128Z,6.02
2023-12-15T19:11:47.725Z,6.02
2023-12-15T19:14:15.407Z,6.03
2023-12-15T19:16:42.093Z,6.06
2023-12-15T19:19:10.262Z,6.04
2023-12-15T19:21:37.176Z,6.06
2023-12-15T19:24:04.965Z,6.06
2023-12-15T19:26:31.623Z,6.09
2023-12-15T19:28:58.865Z,6.10
2023-12-15T19:31:25.769Z,6.10
2023-12-15T19:33:53.484Z,6.06
2023-12-15T19:36:20.311Z,6.04
2023-12-15T19:38:47.126Z,6.05
2023-12-15T19:41:20.204Z,6.09
2023-12-15T19:43:47.485Z,6.10
2023-12-15T19:46:23.204Z,6.12
2023-12-15T19:48:50.208Z,6.10
2023-12-15T19:51:20.466Z,6.15
2023-12-15T19:53:47.659Z,6.17
2023-12-15T19:56:30.294Z,6.16
2023-12-15T19:59:00.295Z,6.14
2023-12-15T20:01:31.558Z,6.19
2023-12-15T20:03:59.795Z,6.19
2023-12-15T20:06:33.866Z,6.18
2023-12-15T20:09:05.015Z,6.16
2023-12-15T20:11:35.379Z,6.15
2023-12-15T20:14:08.988Z,6.13
2023-12-15T20:16:35.909Z,6.20
2023-12-15T20:19:03.143Z,6.19
2023-12-15T20:21:30.441Z,6.21
2023-12-15T20:23:59.052Z,6.20
2023-12-15T20:26:25.882Z,6.15
2023-12-15T20:28:52.491Z,6.17
2023-12-15T20:31:21.626Z,6.12
2023-12-15T20:33:48.453Z,6.17
2023-12-15T20:36:21.400Z,6.22
2023-12-15T20:38:48.708Z,6.17
2023-12-15T20:41:20.397Z,6.20
2023-12-15T20:43:48.354Z,6.19
2023-12-15T20:46:15.127Z,6.20
2023-12-15T20:48:41.961Z,6.16
2023-12-15T20:51:11.985Z,6.15
2023-12-15T20:53:38.592Z,6.13
2023-12-15T20:56:05.502Z,6.13
2023-12-15T20:58:32.394Z,6.16
2023-12-15T21:00:59.093Z,6.14
2023-12-15T21:03:25.722Z,6.13
2023-12-15T21:05:52.337Z,6.16
2023-12-15T21:08:19.096Z,6.14
2023-12-15T21:10:45.851Z,6.13
2023-12-15T21:13:13.542Z,6.12
2023-12-15T21:15:43.012Z,6.12
2023-12-15T21:18:10.264Z,6.13
2023-12-15T21:20:37.380Z,6.11
2023-12-15T21:23:04.155Z,6.14
2023-12-15T21:25:30.746Z,6.13
2023-12-15T21:27:57.384Z,6.05
2023-12-15T21:30:24.026Z,6.08
2023-12-15T21:32:50.820Z,6.04
2023-12-15T21:35:17.416Z,6.05
2023-12-15T21:37:44.051Z,6.05
2023-12-15T21:40:10.964Z,6.02
2023-12-15T21:42:38.068Z,5.97
2023-12-15T21:45:05.384Z,5.96
2023-12-15T21:47:31.992Z,5.95
2023-12-15T21:50:01.041Z,5.94
2023-12-15T21:52:34.324Z,5.94
2023-12-15T21:55:02.210Z,5.97
2023-12-15T21:57:29.006Z,5.98
2023-12-15T21:59:56.844Z,6.01
2023-12-15T22:02:24.474Z,6.02
2023-12-15T22:04:51.464Z,6.00
2023-12-15T22:07:18.340Z,5.98
2023-12-15T22:09:47.822Z,5.98
2023-12-15T22:12:15.218Z,5.87
2023-12-15T22:14:45.700Z,5.96
2023-12-15T22:17:14.767Z,5.94
2023-12-15T22:19:41.904Z,5.98
2023-12-15T22:22:12.264Z,6.00
2023-12-15T22:24:42.732Z,6.02
2023-12-15T22:27:10.616Z,6.05
2023-12-15T22:29:40.207Z,6.07
2023-12-15T22:32:07.587Z,6.08
2023-12-15T22:34:34.398Z,6.07
2023-12-15T22:37:01.255Z,6.07
2023-12-15T22:39:27.851Z,6.01
2023-12-15T22:41:54.679Z,5.98
2023-12-15T22:44:21.402Z,5.97
2023-12-15T22:46:48.113Z,6.04
2023-12-15T22:49:14.816Z,5.99
2023-12-15T22:51:44.780Z,6.02
2023-12-15T22:54:14.416Z,6.00
2023-12-15T22:56:44.430Z,6.00
2023-12-15T22:59:14.188Z,6.01
2023-12-15T23:01:41.089Z,6.01
2023-12-15T23:04:08.165Z,6.01
2023-12-15T23:06:35.070Z,5.96
2023-12-15T23:09:01.817Z,6.00
2023-12-15T23:11:28.524Z,6.00
2023-12-15T23:13:55.234Z,6.01
2023-12-15T23:16:22.034Z,6.00
2023-12-15T23:18:48.942Z,6.02
2023-12-15T23:21:26.191Z,6.08
2023-12-15T23:23:56.240Z,5.98
2023-12-15T23:26:23.174Z,6.08
2023-12-15T23:28:49.905Z,6.08
2023-12-15T23:31:16.780Z,6.01
2023-12-15T23:33:44.364Z,6.06
2023-12-15T23:36:14.956Z,6.03
2023-12-15T23:38:42.214Z,6.08
2023-12-15T23:41:09.809Z,6.00
2023-12-15T23:43:37.313Z,6.02
2023-12-15T23:46:04.375Z,5.94
2023-12-15T23:48:31.050Z,5.92
2023-12-15T23:50:57.738Z,5.91
2023-12-15T23:53:24.327Z,5.86
2023-12-15T23:55:51.094Z,5.85
2023-12-15T23:58:17.917Z,5.87
